createdAt,value
2018-12-06T00:01:08.876Z,4.08
2018-12-06T00:03:45.160Z,4.08
2018-12-06T00:06:16.262Z,4.07
2018-12-06T00:08:46.482Z,4.06
2018-12-06T00:11:17.693Z,4.08
2018-12-06T00:13:48.669Z,4.14
2018-12-06T00:16:18.688Z,4.13
2018-12-06T00:19:07.873Z,4.08
2018-12-06T00:21:39.245Z,4.03
2018-12-06T00:24:10.341Z,4.06
2018-12-06T00:26:40.342Z,4.02
2018-12-06T00:29:10.331Z,4.03
2018-12-06T00:31:40.366Z,4.06
2018-12-06T00:34:11.533Z,4.05
2018-12-06T00:36:42.560Z,4.06
2018-12-06T00:39:12.439Z,4.10
2018-12-06T00:41:43.816Z,4.09
2018-12-06T00:44:13.785Z,4.08
2018-12-06T00:46:43.849Z,4.16
2018-12-06T00:49:13.827Z,4.12
2018-12-06T00:51:44.835Z,4.17
2018-12-06T00:54:14.883Z,4.13
2018-12-06T00:56:44.897Z,4.12
2018-12-06T00:59:15.979Z,4.13
2018-12-06T01:01:45.975Z,4.16
2018-12-06T01:04:16.021Z,4.11
2018-12-06T01:06:47.180Z,4.16
2018-12-06T01:09:17.248Z,4.16
2018-12-06T01:11:47.100Z,4.12
2018-12-06T01:14:17.135Z,4.12
2018-12-06T01:16:47.151Z,4.14
2018-12-06T01:19:17.153Z,4.13
2018-12-06T01:21:47.189Z,4.20
2018-12-06T01:24:17.426Z,4.20
2018-12-06T01:26:47.411Z,4.20
2018-12-06T01:29:17.456Z,4.16
2018-12-06T01:31:47.493Z,4.16
2018-12-06T01:34:17.507Z,4.20
2018-12-06T01:36:47.698Z,4.16
2018-12-06T01:39:17.703Z,4.17
2018-12-06T01:41:48.059Z,4.19
2018-12-06T01:44:18.057Z,4.18
2018-12-06T01:46:48.066Z,4.14
2018-12-06T01:49:18.057Z,4.17
2018-12-06T01:51:49.186Z,4.14
2018-12-06T01:54:19.216Z,4.22
2018-12-06T01:56:49.325Z,4.21
2018-12-06T01:59:19.321Z,4.19
2018-12-06T02:01:49.353Z,4.22
2018-12-06T02:04:20.035Z,4.26
2018-12-06T02:06:50.227Z,4.26
2018-12-06T02:09:20.253Z,4.21
2018-12-06T02:11:50.271Z,4.23
2018-12-06T02:14:20.290Z,4.32
2018-12-06T02:16:50.481Z,4.30
2018-12-06T02:19:20.479Z,4.30
2018-12-06T02:21:50.557Z,4.30
2018-12-06T02:24:20.472Z,4.32
2018-12-06T02:26:50.720Z,4.31
2018-12-06T02:29:20.855Z,4.31
2018-12-06T02:31:52.579Z,4.32
2018-12-06T02:34:22.601Z,4.35
2018-12-06T02:36:52.621Z,4.39
2018-12-06T02:39:22.821Z,4.41
2018-12-06T02:41:52.819Z,4.42
2018-12-06T02:44:24.069Z,4.41
2018-12-06T02:46:54.028Z,4.42
2018-12-06T02:49:23.994Z,4.42
2018-12-06T02:51:54.010Z,4.46
2018-12-06T02:54:24.078Z,4.49
2018-12-06T02:56:54.121Z,4.45
2018-12-06T02:59:24.214Z,4.44
2018-12-06T03:01:54.362Z,4.43
2018-12-06T03:04:24.414Z,4.45
2018-12-06T03:06:54.418Z,4.45
2018-12-06T03:09:24.370Z,4.44
2018-12-06T03:11:54.363Z,4.39
2018-12-06T03:14:24.449Z,4.41
2018-12-06T03:16:54.409Z,4.42
2018-12-06T03:19:24.478Z,4.44
2018-12-06T03:21:54.513Z,4.51
2018-12-06T03:24:24.447Z,4.51
2018-12-06T03:26:54.472Z,4.50
2018-12-06T03:29:24.476Z,4.53
2018-12-06T03:31:54.353Z,4.53
2018-12-06T03:34:24.382Z,4.51
2018-12-06T03:36:54.371Z,4.57
2018-12-06T03:39:24.390Z,4.56
2018-12-06T03:41:54.371Z,4.57
2018-12-06T03:44:24.427Z,4.62
2018-12-06T03:46:54.334Z,4.64
2018-12-06T03:49:24.341Z,4.68
2018-12-06T03:51:59.014Z,4.73
2018-12-06T03:54:29.004Z,4.71
2018-12-06T03:56:59.060Z,4.75
2018-12-06T03:59:29.145Z,4.73
2018-12-06T04:01:59.282Z,4.77
2018-12-06T04:04:29.336Z,4.76
2018-12-06T04:06:59.233Z,4.79
2018-12-06T04:09:29.627Z,4.86
2018-12-06T04:11:59.649Z,4.86
2018-12-06T04:14:29.640Z,4.80
2018-12-06T04:16:59.603Z,4.77
2018-12-06T04:19:29.654Z,4.77
2018-12-06T04:21:59.676Z,4.86
2018-12-06T04:24:29.729Z,4.88
2018-12-06T04:26:59.840Z,4.85
2018-12-06T04:29:29.686Z,4.90
2018-12-06T04:31:59.704Z,4.90
2018-12-06T04:34:29.902Z,4.91
2018-12-06T04:36:59.937Z,4.93
2018-12-06T04:39:29.850Z,4.96
2018-12-06T04:41:59.802Z,4.95
2018-12-06T04:44:29.886Z,4.97
2018-12-06T04:46:59.887Z,4.96
2018-12-06T04:49:30.015Z,4.99
2018-12-06T04:52:00.127Z,5.02
2018-12-06T04:54:30.163Z,5.03
2018-12-06T04:57:00.130Z,5.09
2018-12-06T04:59:30.293Z,5.18
2018-12-06T05:02:00.243Z,5.15
2018-12-06T05:04:30.267Z,5.19
2018-12-06T05:07:00.384Z,5.23
2018-12-06T05:09:31.521Z,5.19
2018-12-06T05:12:11.762Z,5.20
2018-12-06T05:14:45.840Z,5.21
2018-12-06T05:17:22.146Z,5.19
2018-12-06T05:19:59.708Z,5.20
2018-12-06T05:22:33.450Z,5.20
2018-12-06T05:25:09.443Z,5.22
2018-12-06T05:27:43.399Z,5.28
2018-12-06T05:30:20.053Z,5.29
2018-12-06T05:32:56.266Z,5.35
2018-12-06T05:35:31.708Z,5.29
2018-12-06T05:38:07.999Z,5.33
2018-12-06T05:40:41.706Z,5.30
2018-12-06T05:43:18.355Z,5.34
2018-12-06T05:45:54.083Z,5.37
2018-12-06T05:48:31.285Z,5.35
2018-12-06T05:51:07.144Z,5.36
2018-12-06T05:53:43.541Z,5.35
2018-12-06T05:56:17.308Z,5.37
2018-12-06T05:58:53.269Z,5.38
2018-12-06T06:01:29.519Z,5.39
2018-12-06T06:04:09.670Z,5.39
2018-12-06T06:06:45.892Z,5.38
2018-12-06T06:09:21.824Z,5.44
2018-12-06T06:11:56.787Z,5.44
2018-12-06T06:14:33.225Z,5.48
2018-12-06T06:17:07.033Z,5.49
2018-12-06T06:19:42.806Z,5.51
2018-12-06T06:22:15.897Z,5.56
2018-12-06T06:24:55.658Z,5.59
2018-12-06T06:27:40.275Z,5.64
2018-12-06T06:30:20.271Z,5.66
2018-12-06T06:32:56.694Z,5.70
2018-12-06T06:35:30.506Z,5.73
2018-12-06T06:38:03.985Z,5.75
2018-12-06T06:40:39.752Z,5.78
2018-12-06T06:43:16.807Z,5.85
2018-12-06T06:45:50.427Z,5.84
2018-12-06T06:48:26.385Z,5.86
2018-12-06T06:51:00.382Z,5.87
2018-12-06T06:53:36.199Z,5.88
2018-12-06T06:56:12.531Z,5.90
2018-12-06T06:58:48.783Z,5.93
2018-12-06T07:01:28.835Z,5.94
2018-12-06T07:04:05.221Z,5.99
2018-12-06T07:06:41.778Z,5.98
2018-12-06T07:09:23.682Z,5.93
2018-12-06T07:11:59.469Z,5.99
2018-12-06T07:14:34.847Z,5.96
2018-12-06T07:17:08.821Z,5.99
2018-12-06T07:19:51.429Z,5.98
2018-12-06T07:22:27.283Z,5.99
2018-12-06T07:25:09.687Z,5.99
2018-12-06T07:27:43.382Z,5.95
2018-12-06T07:30:25.141Z,5.95
2018-12-06T07:32:58.617Z,5.96
2018-12-06T07:35:34.454Z,5.97
2018-12-06T07:38:10.992Z,5.98
2018-12-06T07:40:55.166Z,6.00
2018-12-06T07:43:33.058Z,6.01
2018-12-06T07:46:11.186Z,6.02
2018-12-06T07:51:48.082Z,6.05
2018-12-06T07:54:21.702Z,6.01
2018-12-06T07:56:58.048Z,6.02
2018-12-06T07:59:31.578Z,6.02
2018-12-06T08:02:04.808Z,6.03
2018-12-06T08:04:41.061Z,6.02
2018-12-06T08:07:12.827Z,6.03
2018-12-06T08:09:49.156Z,6.06
2018-12-06T08:12:25.076Z,6.04
2018-12-06T08:15:07.565Z,6.05
2018-12-06T08:17:44.270Z,6.09
2018-12-06T08:20:20.156Z,6.09
2018-12-06T08:23:02.367Z,6.15
2018-12-06T08:25:38.380Z,6.16
2018-12-06T08:28:14.432Z,6.20
2018-12-06T08:30:49.707Z,6.22
2018-12-06T08:33:28.861Z,6.26
2018-12-06T08:36:03.521Z,6.28
2018-12-06T08:38:47.187Z,6.31
2018-12-06T08:41:25.024Z,6.34
2018-12-06T08:44:06.556Z,6.39
2018-12-06T08:49:50.209Z,6.44
2018-12-06T08:52:24.814Z,6.47
2018-12-06T08:55:01.347Z,6.51
2018-12-06T08:57:37.043Z,6.56
2018-12-06T09:00:13.653Z,6.63
2018-12-06T09:02:47.946Z,6.66
2018-12-06T09:05:24.044Z,6.69
2018-12-06T09:07:58.114Z,6.74
2018-12-06T09:10:34.003Z,6.79
2018-12-06T09:13:08.599Z,6.83
2018-12-06T09:15:44.127Z,6.88
2018-12-06T09:18:18.004Z,6.94
2018-12-06T09:20:51.191Z,6.95
2018-12-06T09:23:40.163Z,7.03
2018-12-06T09:26:10.012Z,7.04
2018-12-06T09:28:40.014Z,7.16
2018-12-06T09:31:09.999Z,7.18
2018-12-06T09:33:51.324Z,7.23
2018-12-06T09:36:21.378Z,7.27
2018-12-06T09:38:51.430Z,7.28
2018-12-06T09:41:21.442Z,7.27
2018-12-06T09:43:51.714Z,7.25
2018-12-06T09:46:22.068Z,7.25
2018-12-06T09:48:52.560Z,7.26
2018-12-06T09:51:22.628Z,7.23
2018-12-06T09:53:52.876Z,7.24
2018-12-06T09:56:24.600Z,7.28
2018-12-06T09:58:54.897Z,7.32
2018-12-06T10:01:24.879Z,7.34
2018-12-06T10:03:54.836Z,7.36
2018-12-06T10:06:24.856Z,7.38
2018-12-06T10:08:54.882Z,7.39
2018-12-06T10:11:24.924Z,7.39
2018-12-06T10:13:54.907Z,7.38
2018-12-06T10:16:24.931Z,7.40
2018-12-06T10:18:55.068Z,7.39
2018-12-06T10:21:25.131Z,7.40
2018-12-06T10:23:55.170Z,7.41
2018-12-06T10:26:25.126Z,7.41
2018-12-06T10:28:54.993Z,7.42
2018-12-06T10:31:24.999Z,7.43
2018-12-06T10:33:55.160Z,7.44
2018-12-06T10:36:25.038Z,7.49
2018-12-06T10:38:55.201Z,7.50
2018-12-06T10:41:25.165Z,7.49
2018-12-06T10:43:55.203Z,7.51
2018-12-06T10:46:25.228Z,7.51
2018-12-06T10:48:55.251Z,7.53
2018-12-06T10:51:41.468Z,7.56
2018-12-06T10:54:11.563Z,7.60
2018-12-06T10:56:41.615Z,7.64
2018-12-06T10:59:11.728Z,7.68
2018-12-06T11:01:52.276Z,7.69
2018-12-06T11:04:24.396Z,7.75
2018-12-06T11:06:54.434Z,7.77
2018-12-06T11:09:24.497Z,7.83
2018-12-06T11:11:54.541Z,7.87
2018-12-06T11:14:24.564Z,7.90
2018-12-06T11:16:54.612Z,7.94
2018-12-06T11:19:24.925Z,7.95
2018-12-06T11:21:55.030Z,8.00
2018-12-06T11:24:25.061Z,8.03
2018-12-06T11:26:55.069Z,8.03
2018-12-06T11:29:24.993Z,8.04
2018-12-06T11:31:55.159Z,8.06
2018-12-06T11:34:25.246Z,8.11
2018-12-06T11:36:55.304Z,8.10
2018-12-06T11:39:25.303Z,8.11
2018-12-06T11:41:55.340Z,8.14
2018-12-06T11:44:25.387Z,8.17
2018-12-06T11:46:55.263Z,8.17
2018-12-06T11:49:25.174Z,8.18
2018-12-06T11:51:55.188Z,8.19
2018-12-06T11:54:25.252Z,8.23
2018-12-06T11:56:55.243Z,8.24
2018-12-06T11:59:25.211Z,8.25
2018-12-06T12:01:55.162Z,8.30
2018-12-06T12:04:30.687Z,8.32
2018-12-06T12:07:00.610Z,8.33
2018-12-06T12:09:30.711Z,8.37
2018-12-06T12:12:00.694Z,8.39
2018-12-06T12:14:32.697Z,8.42
2018-12-06T12:17:02.783Z,8.47
2018-12-06T12:19:34.440Z,8.51
2018-12-06T12:22:04.658Z,8.55
2018-12-06T12:24:34.676Z,8.56
2018-12-06T12:27:04.585Z,8.58
2018-12-06T12:29:34.712Z,8.61
2018-12-06T12:32:04.991Z,8.64
2018-12-06T12:34:34.938Z,8.68
2018-12-06T12:37:05.257Z,8.68
2018-12-06T12:39:35.332Z,8.69
2018-12-06T12:42:05.356Z,8.69
2018-12-06T12:44:35.278Z,8.69
2018-12-06T12:47:05.821Z,8.72
2018-12-06T12:49:35.869Z,8.72
2018-12-06T12:52:05.778Z,8.71
2018-12-06T12:54:35.724Z,8.76
2018-12-06T12:57:05.687Z,8.78
2018-12-06T12:59:35.872Z,8.78
2018-12-06T13:02:06.156Z,8.82
2018-12-06T13:04:36.161Z,8.84
2018-12-06T13:07:11.147Z,8.85
2018-12-06T13:09:41.206Z,8.86
2018-12-06T13:12:11.337Z,8.89
2018-12-06T13:14:41.391Z,8.91
2018-12-06T13:17:11.252Z,8.94
2018-12-06T13:19:47.562Z,8.96
2018-12-06T13:22:17.663Z,8.96
2018-12-06T13:24:47.842Z,8.99
2018-12-06T13:27:17.687Z,9.00
2018-12-06T13:29:47.957Z,9.01
2018-12-06T13:32:18.184Z,9.05
2018-12-06T13:34:48.265Z,9.05
2018-12-06T13:37:18.429Z,9.06
2018-12-06T13:39:48.565Z,9.06
2018-12-06T13:42:23.581Z,9.09
2018-12-06T13:44:50.833Z,9.14
2018-12-06T13:47:20.940Z,9.18
2018-12-06T13:49:51.214Z,9.19
2018-12-06T13:52:21.227Z,9.23
2018-12-06T13:54:51.534Z,9.22
2018-12-06T13:57:21.605Z,9.23
2018-12-06T13:59:52.029Z,9.24
2018-12-06T14:02:22.396Z,9.25
2018-12-06T14:04:54.178Z,9.27
2018-12-06T14:07:24.247Z,9.25
2018-12-06T14:09:54.385Z,9.31
2018-12-06T14:12:24.504Z,9.32
2018-12-06T14:14:54.379Z,9.34
2018-12-06T14:17:24.395Z,9.36
2018-12-06T14:19:54.690Z,9.35
2018-12-06T14:22:24.825Z,9.38
2018-12-06T14:24:54.759Z,9.39
2018-12-06T14:27:24.752Z,9.40
2018-12-06T14:29:55.031Z,9.41
2018-12-06T14:32:25.216Z,9.44
2018-12-06T14:34:55.252Z,9.49
2018-12-06T14:37:25.369Z,9.48
2018-12-06T14:39:56.371Z,9.49
2018-12-06T14:42:26.387Z,9.52
2018-12-06T14:44:56.470Z,9.52
2018-12-06T14:47:27.881Z,9.51
2018-12-06T14:49:57.857Z,9.55
2018-12-06T14:52:27.950Z,9.57
2018-12-06T14:54:57.947Z,9.59
2018-12-06T14:57:28.128Z,9.58
2018-12-06T14:59:58.121Z,9.57
2018-12-06T15:02:28.300Z,9.61
2018-12-06T15:04:58.291Z,9.58
2018-12-06T15:07:28.413Z,9.61
2018-12-06T15:09:58.500Z,9.61
2018-12-06T15:13:16.099Z,9.62
2018-12-06T15:15:46.191Z,9.62
2018-12-06T15:18:16.212Z,9.66
2018-12-06T15:20:47.864Z,9.65
2018-12-06T15:23:18.710Z,9.67
2018-12-06T15:25:52.480Z,9.68
2018-12-06T15:28:24.484Z,9.69
2018-12-06T15:30:55.546Z,9.73
2018-12-06T15:33:25.710Z,9.75
2018-12-06T15:35:56.112Z,9.74
2018-12-06T15:38:27.267Z,9.75
2018-12-06T15:40:57.310Z,9.75
2018-12-06T15:43:27.327Z,9.79
2018-12-06T15:45:58.877Z,9.80
2018-12-06T15:48:28.931Z,9.83
2018-12-06T15:50:58.784Z,9.83
2018-12-06T15:53:28.800Z,9.84
2018-12-06T15:56:02.193Z,9.85
2018-12-06T15:58:34.722Z,9.87
2018-12-06T16:01:04.839Z,9.88
2018-12-06T16:03:36.340Z,9.89
2018-12-06T16:06:06.352Z,9.92
2018-12-06T16:08:37.846Z,9.90
2018-12-06T16:11:07.953Z,9.92
2018-12-06T16:13:38.868Z,9.91
2018-12-06T16:16:09.696Z,9.90
2018-12-06T16:18:41.143Z,9.92
2018-12-06T16:21:12.772Z,9.94
2018-12-06T16:23:46.546Z,9.93
2018-12-06T16:26:16.767Z,9.93
2018-12-06T16:28:46.910Z,9.93
2018-12-06T16:31:17.341Z,9.93
2018-12-06T16:33:47.581Z,9.96
2018-12-06T16:36:17.836Z,9.99
2018-12-06T16:41:54.224Z,9.96
2018-12-06T16:44:24.343Z,9.95
2018-12-06T16:46:54.337Z,9.98
2018-12-06T16:49:24.387Z,9.97
2018-12-06T16:51:54.564Z,10.00
2018-12-06T16:54:24.547Z,10.00
2018-12-06T16:56:54.733Z,9.99
2018-12-06T16:59:24.672Z,9.97
2018-12-06T17:01:54.918Z,9.99
2018-12-06T17:04:25.196Z,9.99
2018-12-06T17:06:55.213Z,10.00
2018-12-06T17:09:25.482Z,10.01
2018-12-06T17:11:55.550Z,9.99
2018-12-06T17:14:25.642Z,10.00
2018-12-06T17:16:55.656Z,9.99
2018-12-06T17:19:26.014Z,9.97
2018-12-06T17:21:56.177Z,9.97
2018-12-06T17:24:26.343Z,9.96
2018-12-06T17:26:56.356Z,9.97
2018-12-06T17:29:26.682Z,9.98
2018-12-06T17:31:56.857Z,9.99
2018-12-06T17:34:27.205Z,10.00
2018-12-06T17:36:57.268Z,10.02
2018-12-06T17:39:28.508Z,10.03
2018-12-06T17:41:58.610Z,10.02
2018-12-06T17:44:29.324Z,10.01
2018-12-06T17:47:01.301Z,10.03
2018-12-06T17:49:34.031Z,9.99
2018-12-06T17:52:04.046Z,10.00
2018-12-06T17:54:34.843Z,10.01
2018-12-06T17:57:04.857Z,10.01
2018-12-06T17:59:35.023Z,10.01
2018-12-06T18:02:06.425Z,10.02
2018-12-06T18:04:36.665Z,10.01
2018-12-06T18:07:06.927Z,10.01
2018-12-06T18:09:36.954Z,10.02
2018-12-06T18:12:07.072Z,10.02
2018-12-06T18:14:37.266Z,10.01
2018-12-06T18:17:07.271Z,10.03
2018-12-06T18:19:37.484Z,10.03
2018-12-06T18:22:07.584Z,10.02
2018-12-06T18:24:38.183Z,10.01
2018-12-06T18:27:08.218Z,10.02
2018-12-06T18:29:38.336Z,10.05
2018-12-06T18:32:08.370Z,10.04
2018-12-06T18:34:38.613Z,10.07
2018-12-06T18:37:10.326Z,10.06
2018-12-06T18:39:42.200Z,10.04
2018-12-06T18:42:13.885Z,10.03
2018-12-06T18:44:43.959Z,10.04
2018-12-06T18:47:14.147Z,10.05
2018-12-06T18:49:44.335Z,10.06
2018-12-06T18:52:14.481Z,10.06
2018-12-06T18:54:44.607Z,10.07
2018-12-06T18:57:14.654Z,10.07
2018-12-06T18:59:44.750Z,10.09
2018-12-06T19:02:14.783Z,10.08
2018-12-06T19:04:45.029Z,10.07
2018-12-06T19:07:14.976Z,10.06
2018-12-06T19:09:45.036Z,10.08
2018-12-06T19:12:16.390Z,10.10
2018-12-06T19:14:46.997Z,10.09
2018-12-06T19:17:17.131Z,10.11
2018-12-06T19:19:47.219Z,10.10
2018-12-06T19:22:17.412Z,10.11
2018-12-06T19:24:47.419Z,10.13
2018-12-06T19:27:17.462Z,10.13
2018-12-06T19:29:47.378Z,10.12
2018-12-06T19:32:17.368Z,10.10
2018-12-06T19:34:47.397Z,10.09
2018-12-06T19:37:17.586Z,10.07
2018-12-06T19:39:47.621Z,10.05
2018-12-06T19:42:18.826Z,10.06
2018-12-06T19:44:48.991Z,10.04
2018-12-06T19:47:19.009Z,10.03
2018-12-06T19:49:49.060Z,10.01
2018-12-06T19:52:21.176Z,9.99
2018-12-06T19:54:51.442Z,9.98
2018-12-06T19:57:21.490Z,9.98
2018-12-06T19:59:51.603Z,9.96
2018-12-06T20:02:21.730Z,9.96
2018-12-06T20:04:51.970Z,9.97
2018-12-06T20:07:24.001Z,9.98
2018-12-06T20:09:54.002Z,9.99
2018-12-06T20:12:24.714Z,9.99
2018-12-06T20:14:54.880Z,9.99
2018-12-06T20:17:25.090Z,10.02
2018-12-06T20:19:55.242Z,10.04
2018-12-06T20:22:25.466Z,10.05
2018-12-06T20:24:55.963Z,10.03
2018-12-06T20:27:26.910Z,10.07
2018-12-06T20:30:00.773Z,10.07
2018-12-06T20:32:31.176Z,10.09
2018-12-06T20:35:02.312Z,10.09
2018-12-06T20:37:32.370Z,10.10
2018-12-06T20:40:02.479Z,10.11
2018-12-06T20:42:33.644Z,10.10
2018-12-06T20:45:04.043Z,10.16
2018-12-06T20:50:34.902Z,10.16
2018-12-06T20:53:12.030Z,10.17
2018-12-06T20:55:50.140Z,10.21
2018-12-06T20:58:20.344Z,10.22
2018-12-06T21:07:07.904Z,10.28
2018-12-06T21:09:40.194Z,10.29
2018-12-06T21:12:19.722Z,10.31
2018-12-06T21:14:50.147Z,10.33
2018-12-06T21:17:20.180Z,10.34
2018-12-06T21:19:50.215Z,10.36
2018-12-06T21:22:21.158Z,10.38
2018-12-06T21:25:03.673Z,10.39
2018-12-06T21:27:33.726Z,10.44
2018-12-06T21:30:09.812Z,10.47
2018-12-06T21:33:01.861Z,10.47
2018-12-06T21:35:55.522Z,10.48
2018-12-06T21:38:29.078Z,10.52
2018-12-06T21:41:09.766Z,10.53
2018-12-06T21:43:53.861Z,10.51
2018-12-06T21:46:45.432Z,10.50
2018-12-06T21:52:29.949Z,10.53
2018-12-06T21:55:10.520Z,10.50
2018-12-06T21:57:47.070Z,10.53
2018-12-06T22:03:32.622Z,10.52
2018-12-06T22:06:08.465Z,10.54
2018-12-06T22:08:44.690Z,10.55
2018-12-06T22:17:26.278Z,10.54
2018-12-06T22:20:03.146Z,10.54
2018-12-06T22:22:38.641Z,10.56
2018-12-06T22:25:14.666Z,10.58
2018-12-06T22:27:56.682Z,10.57
2018-12-06T22:30:32.368Z,10.59
2018-12-06T22:33:15.996Z,10.61
2018-12-06T22:42:12.875Z,10.63
2018-12-06T22:44:49.426Z,10.67
2018-12-06T22:47:25.597Z,10.68
2018-12-06T22:50:01.252Z,10.69
2018-12-06T22:55:37.845Z,10.71
2018-12-06T22:58:24.171Z,10.69
2018-12-06T23:04:09.431Z,10.74
2018-12-06T23:09:55.331Z,10.76
2018-12-06T23:12:31.315Z,10.78
2018-12-06T23:24:35.797Z,10.80
2018-12-06T23:27:12.562Z,10.83
2018-12-06T23:29:53.379Z,10.80
2018-12-06T23:32:28.989Z,10.81
2018-12-06T23:38:11.930Z,10.83
2018-12-06T23:43:55.949Z,10.83
2018-12-06T23:56:12.371Z,10.81
